sensor_id;sensor_type;location;lat;lon;timestamp;P1;durP1;ratioP1;P2;durP2;ratioP2
77204;SDS011;67992;46.618;18.850;2023-03-19T00:00:30;6.20;;;2.83;;
77204;SDS011;67992;46.618;18.850;2023-03-19T00:02:55;4.53;;;2.97;;
77204;SDS011;67992;46.618;18.850;2023-03-19T00:05:21;4.38;;;2.90;;
77204;SDS011;67992;46.618;18.850;2023-03-19T00:07:46;6.13;;;3.35;;
77204;SDS011;67992;46.618;18.850;2023-03-19T00:10:15;3.78;;;2.70;;
77204;SDS011;67992;46.618;18.850;2023-03-19T00:12:41;4.22;;;2.80;;
77204;SDS011;67992;46.618;18.850;2023-03-19T00:15:06;3.75;;;2.70;;
77204;SDS011;67992;46.618;18.850;2023-03-19T00:17:38;4.97;;;2.85;;
77204;SDS011;67992;46.618;18.850;2023-03-19T00:20:07;5.15;;;2.90;;
77204;SDS011;67992;46.618;18.850;2023-03-19T00:22:34;4.57;;;2.90;;
77204;SDS011;67992;46.618;18.850;2023-03-19T00:24:59;4.18;;;2.88;;
77204;SDS011;67992;46.618;18.850;2023-03-19T00:27:28;3.47;;;2.60;;
77204;SDS011;67992;46.618;18.850;2023-03-19T00:29:53;4.65;;;2.53;;
77204;SDS011;67992;46.618;18.850;2023-03-19T00:32:19;4.45;;;2.80;;
77204;SDS011;67992;46.618;18.850;2023-03-19T00:34:45;3.90;;;2.67;;
77204;SDS011;67992;46.618;18.850;2023-03-19T00:37:11;4.95;;;3.03;;
77204;SDS011;67992;46.618;18.850;2023-03-19T00:39:37;5.15;;;3.10;;
77204;SDS011;67992;46.618;18.850;2023-03-19T00:42:02;4.32;;;2.80;;
77204;SDS011;67992;46.618;18.850;2023-03-19T00:44:31;4.70;;;2.90;;
77204;SDS011;67992;46.618;18.850;2023-03-19T00:46:57;4.10;;;2.65;;
77204;SDS011;67992;46.618;18.850;2023-03-19T00:49:22;2.97;;;2.42;;
77204;SDS011;67992;46.618;18.850;2023-03-19T00:51:48;5.40;;;3.00;;
77204;SDS011;67992;46.618;18.850;2023-03-19T00:54:13;5.43;;;3.15;;
77204;SDS011;67992;46.618;18.850;2023-03-19T00:56:41;3.88;;;2.78;;
77204;SDS011;67992;46.618;18.850;2023-03-19T00:59:07;4.22;;;3.03;;
77204;SDS011;67992;46.618;18.850;2023-03-19T01:01:32;5.30;;;2.92;;
77204;SDS011;67992;46.618;18.850;2023-03-19T01:03:58;4.22;;;2.90;;
77204;SDS011;67992;46.618;18.850;2023-03-19T01:06:24;4.05;;;2.85;;
77204;SDS011;67992;46.618;18.850;2023-03-19T01:08:50;5.22;;;2.80;;
77204;SDS011;67992;46.618;18.850;2023-03-19T01:11:15;3.92;;;2.60;;
77204;SDS011;67992;46.618;18.850;2023-03-19T01:13:42;4.60;;;2.85;;
77204;SDS011;67992;46.618;18.850;2023-03-19T01:16:08;3.67;;;2.45;;
77204;SDS011;67992;46.618;18.850;2023-03-19T01:18:34;4.88;;;3.10;;
77204;SDS011;67992;46.618;18.850;2023-03-19T01:21:00;4.95;;;2.80;;
77204;SDS011;67992;46.618;18.850;2023-03-19T01:23:26;4.13;;;2.67;;
77204;SDS011;67992;46.618;18.850;2023-03-19T01:25:54;4.30;;;2.95;;
77204;SDS011;67992;46.618;18.850;2023-03-19T01:28:21;4.53;;;2.92;;
77204;SDS011;67992;46.618;18.850;2023-03-19T01:30:47;3.33;;;2.60;;
77204;SDS011;67992;46.618;18.850;2023-03-19T01:33:13;3.63;;;2.80;;
77204;SDS011;67992;46.618;18.850;2023-03-19T01:35:38;3.80;;;2.67;;
77204;SDS011;67992;46.618;18.850;2023-03-19T01:38:04;5.28;;;3.05;;
77204;SDS011;67992;46.618;18.850;2023-03-19T01:40:30;4.35;;;2.78;;
77204;SDS011;67992;46.618;18.850;2023-03-19T01:43:10;4.28;;;2.90;;
77204;SDS011;67992;46.618;18.850;2023-03-19T01:45:39;4.38;;;2.85;;
77204;SDS011;67992;46.618;18.850;2023-03-19T01:48:25;4.60;;;2.70;;
77204;SDS011;67992;46.618;18.850;2023-03-19T01:50:58;4.70;;;2.78;;
77204;SDS011;67992;46.618;18.850;2023-03-19T01:53:25;3.47;;;2.47;;
77204;SDS011;67992;46.618;18.850;2023-03-19T01:55:56;5.93;;;2.80;;
77204;SDS011;67992;46.618;18.850;2023-03-19T01:58:27;3.95;;;2.60;;
77204;SDS011;67992;46.618;18.850;2023-03-19T02:00:57;3.60;;;2.45;;
77204;SDS011;67992;46.618;18.850;2023-03-19T02:03:23;4.10;;;2.78;;
77204;SDS011;67992;46.618;18.850;2023-03-19T02:05:50;5.40;;;2.70;;
77204;SDS011;67992;46.618;18.850;2023-03-19T02:08:18;3.90;;;2.45;;
77204;SDS011;67992;46.618;18.850;2023-03-19T02:10:49;3.60;;;2.53;;
77204;SDS011;67992;46.618;18.850;2023-03-19T02:13:16;4.15;;;2.35;;
77204;SDS011;67992;46.618;18.850;2023-03-19T02:15:44;4.28;;;2.70;;
77204;SDS011;67992;46.618;18.850;2023-03-19T02:18:13;4.38;;;2.80;;
77204;SDS011;67992;46.618;18.850;2023-03-19T02:23:31;4.93;;;2.70;;
77204;SDS011;67992;46.618;18.850;2023-03-19T02:26:06;3.50;;;2.63;;
77204;SDS011;67992;46.618;18.850;2023-03-19T02:28:35;3.60;;;2.47;;
77204;SDS011;67992;46.618;18.850;2023-03-19T02:33:32;3.25;;;2.50;;
77204;SDS011;67992;46.618;18.850;2023-03-19T02:35:58;4.50;;;2.60;;
77204;SDS011;67992;46.618;18.850;2023-03-19T02:38:26;3.97;;;2.40;;
77204;SDS011;67992;46.618;18.850;2023-03-19T02:40:58;3.45;;;2.35;;
77204;SDS011;67992;46.618;18.850;2023-03-19T02:43:32;4.03;;;2.50;;
77204;SDS011;67992;46.618;18.850;2023-03-19T02:46:00;4.13;;;2.50;;
77204;SDS011;67992;46.618;18.850;2023-03-19T02:48:30;3.20;;;2.40;;
77204;SDS011;67992;46.618;18.850;2023-03-19T02:50:56;4.00;;;2.95;;
77204;SDS011;67992;46.618;18.850;2023-03-19T02:53:22;5.55;;;2.72;;
77204;SDS011;67992;46.618;18.850;2023-03-19T02:55:51;4.68;;;2.70;;
77204;SDS011;67992;46.618;18.850;2023-03-19T02:58:17;4.05;;;2.60;;
77204;SDS011;67992;46.618;18.850;2023-03-19T03:00:43;3.20;;;2.67;;
77204;SDS011;67992;46.618;18.850;2023-03-19T03:03:09;3.55;;;2.35;;
77204;SDS011;67992;46.618;18.850;2023-03-19T03:05:38;3.83;;;2.63;;
77204;SDS011;67992;46.618;18.850;2023-03-19T03:08:04;4.75;;;2.50;;
77204;SDS011;67992;46.618;18.850;2023-03-19T03:10:30;4.55;;;2.60;;
77204;SDS011;67992;46.618;18.850;2023-03-19T03:12:56;4.07;;;2.80;;
77204;SDS011;67992;46.618;18.850;2023-03-19T03:15:25;4.35;;;2.50;;
77204;SDS011;67992;46.618;18.850;2023-03-19T03:17:51;4.15;;;2.70;;
77204;SDS011;67992;46.618;18.850;2023-03-19T03:20:16;4.03;;;2.55;;
77204;SDS011;67992;46.618;18.850;2023-03-19T03:22:44;4.13;;;2.63;;
77204;SDS011;67992;46.618;18.850;2023-03-19T03:25:10;3.10;;;2.40;;
77204;SDS011;67992;46.618;18.850;2023-03-19T03:27:35;3.50;;;2.45;;
77204;SDS011;67992;46.618;18.850;2023-03-19T03:30:03;4.32;;;2.40;;
77204;SDS011;67992;46.618;18.850;2023-03-19T03:32:29;3.97;;;2.40;;
77204;SDS011;67992;46.618;18.850;2023-03-19T03:34:55;3.60;;;2.90;;
77204;SDS011;67992;46.618;18.850;2023-03-19T03:37:20;3.63;;;2.50;;
77204;SDS011;67992;46.618;18.850;2023-03-19T03:39:46;5.03;;;2.63;;
77204;SDS011;67992;46.618;18.850;2023-03-19T03:42:18;2.97;;;2.10;;
77204;SDS011;67992;46.618;18.850;2023-03-19T03:44:44;3.92;;;2.60;;
77204;SDS011;67992;46.618;18.850;2023-03-19T03:47:09;4.07;;;2.70;;
77204;SDS011;67992;46.618;18.850;2023-03-19T03:49:35;4.43;;;2.50;;
77204;SDS011;67992;46.618;18.850;2023-03-19T03:52:01;3.85;;;2.40;;
77204;SDS011;67992;46.618;18.850;2023-03-19T03:54:26;3.70;;;2.50;;
77204;SDS011;67992;46.618;18.850;2023-03-19T03:56:52;3.92;;;2.42;;
77204;SDS011;67992;46.618;18.850;2023-03-19T03:59:17;3.80;;;2.25;;
77204;SDS011;67992;46.618;18.850;2023-03-19T04:01:43;4.20;;;2.67;;
77204;SDS011;67992;46.618;18.850;2023-03-19T04:04:08;3.85;;;2.30;;
77204;SDS011;67992;46.618;18.850;2023-03-19T04:06:34;3.58;;;2.33;;
77204;SDS011;67992;46.618;18.850;2023-03-19T04:08:59;4.18;;;2.50;;
77204;SDS011;67992;46.618;18.850;2023-03-19T04:11:25;3.78;;;2.72;;
77204;SDS011;67992;46.618;18.850;2023-03-19T04:13:53;4.88;;;3.13;;
77204;SDS011;67992;46.618;18.850;2023-03-19T04:16:21;4.10;;;2.45;;
77204;SDS011;67992;46.618;18.850;2023-03-19T04:18:48;3.42;;;2.30;;
77204;SDS011;67992;46.618;18.850;2023-03-19T04:21:14;3.70;;;2.50;;
77204;SDS011;67992;46.618;18.850;2023-03-19T04:23:45;4.72;;;2.65;;
77204;SDS011;67992;46.618;18.850;2023-03-19T04:26:11;3.75;;;2.40;;
77204;SDS011;67992;46.618;18.850;2023-03-19T04:28:39;3.55;;;2.30;;
77204;SDS011;67992;46.618;18.850;2023-03-19T04:31:05;4.00;;;2.47;;
77204;SDS011;67992;46.618;18.850;2023-03-19T04:33:32;3.08;;;2.50;;
77204;SDS011;67992;46.618;18.850;2023-03-19T04:35:58;4.18;;;2.38;;
77204;SDS011;67992;46.618;18.850;2023-03-19T04:38:24;4.07;;;2.40;;
77204;SDS011;67992;46.618;18.850;2023-03-19T04:40:50;3.33;;;2.20;;
77204;SDS011;67992;46.618;18.850;2023-03-19T04:43:17;3.13;;;2.10;;
77204;SDS011;67992;46.618;18.850;2023-03-19T04:45:43;3.97;;;2.53;;
77204;SDS011;67992;46.618;18.850;2023-03-19T04:48:09;3.40;;;2.20;;
77204;SDS011;67992;46.618;18.850;2023-03-19T04:50:35;3.55;;;2.38;;
77204;SDS011;67992;46.618;18.850;2023-03-19T04:53:00;3.20;;;2.30;;
77204;SDS011;67992;46.618;18.850;2023-03-19T04:55:26;3.83;;;2.58;;
77204;SDS011;67992;46.618;18.850;2023-03-19T04:57:52;3.08;;;2.40;;
77204;SDS011;67992;46.618;18.850;2023-03-19T05:00:17;3.78;;;2.55;;
77204;SDS011;67992;46.618;18.850;2023-03-19T05:02:44;4.03;;;2.42;;
77204;SDS011;67992;46.618;18.850;2023-03-19T05:05:10;3.60;;;2.28;;
77204;SDS011;67992;46.618;18.850;2023-03-19T05:07:37;4.03;;;2.50;;
77204;SDS011;67992;46.618;18.850;2023-03-19T05:10:04;4.65;;;2.58;;
77204;SDS011;67992;46.618;18.850;2023-03-19T05:12:30;3.55;;;2.28;;
77204;SDS011;67992;46.618;18.850;2023-03-19T05:14:56;4.18;;;2.55;;
77204;SDS011;67992;46.618;18.850;2023-03-19T05:17:22;3.88;;;2.28;;
77204;SDS011;67992;46.618;18.850;2023-03-19T05:19:50;3.47;;;2.30;;
77204;SDS011;67992;46.618;18.850;2023-03-19T05:22:19;4.35;;;2.40;;
77204;SDS011;67992;46.618;18.850;2023-03-19T05:24:45;3.65;;;2.60;;
77204;SDS011;67992;46.618;18.850;2023-03-19T05:27:11;3.42;;;2.38;;
77204;SDS011;67992;46.618;18.850;2023-03-19T05:29:39;3.60;;;2.30;;
77204;SDS011;67992;46.618;18.850;2023-03-19T05:32:06;4.30;;;2.53;;
77204;SDS011;67992;46.618;18.850;2023-03-19T05:34:36;3.33;;;2.20;;
77204;SDS011;67992;46.618;18.850;2023-03-19T05:37:01;3.95;;;2.30;;
77204;SDS011;67992;46.618;18.850;2023-03-19T05:39:27;3.30;;;2.40;;
77204;SDS011;67992;46.618;18.850;2023-03-19T05:41:52;3.60;;;2.47;;
77204;SDS011;67992;46.618;18.850;2023-03-19T05:44:18;4.30;;;2.50;;
77204;SDS011;67992;46.618;18.850;2023-03-19T05:46:44;5.10;;;2.30;;
77204;SDS011;67992;46.618;18.850;2023-03-19T05:49:10;3.47;;;2.42;;
77204;SDS011;67992;46.618;18.850;2023-03-19T05:51:36;3.55;;;2.45;;
77204;SDS011;67992;46.618;18.850;2023-03-19T05:54:01;4.38;;;2.53;;
77204;SDS011;67992;46.618;18.850;2023-03-19T05:56:27;3.72;;;2.30;;
77204;SDS011;67992;46.618;18.850;2023-03-19T05:58:53;4.95;;;2.47;;
77204;SDS011;67992;46.618;18.850;2023-03-19T06:01:22;3.13;;;2.00;;
77204;SDS011;67992;46.618;18.850;2023-03-19T06:03:50;3.40;;;2.40;;
77204;SDS011;67992;46.618;18.850;2023-03-19T06:06:18;4.57;;;2.40;;
77204;SDS011;67992;46.618;18.850;2023-03-19T06:08:44;4.07;;;2.33;;
77204;SDS011;67992;46.618;18.850;2023-03-19T06:11:12;3.58;;;2.25;;
77204;SDS011;67992;46.618;18.850;2023-03-19T06:13:38;3.78;;;2.42;;
77204;SDS011;67992;46.618;18.850;2023-03-19T06:16:10;3.47;;;2.30;;
77204;SDS011;67992;46.618;18.850;2023-03-19T06:18:39;3.10;;;2.15;;
77204;SDS011;67992;46.618;18.850;2023-03-19T06:21:05;2.95;;;2.10;;
77204;SDS011;67992;46.618;18.850;2023-03-19T06:23:33;4.47;;;2.20;;
77204;SDS011;67992;46.618;18.850;2023-03-19T06:25:58;3.58;;;2.20;;
77204;SDS011;67992;46.618;18.850;2023-03-19T06:28:24;4.47;;;2.47;;
77204;SDS011;67992;46.618;18.850;2023-03-19T06:30:54;3.20;;;2.10;;
77204;SDS011;67992;46.618;18.850;2023-03-19T06:33:26;3.53;;;2.10;;
77204;SDS011;67992;46.618;18.850;2023-03-19T06:35:56;3.10;;;2.13;;
77204;SDS011;67992;46.618;18.850;2023-03-19T06:38:22;3.97;;;2.05;;
77204;SDS011;67992;46.618;18.850;2023-03-19T06:40:48;3.33;;;2.20;;
77204;SDS011;67992;46.618;18.850;2023-03-19T06:43:14;2.80;;;2.00;;
77204;SDS011;67992;46.618;18.850;2023-03-19T06:45:42;3.35;;;2.08;;
77204;SDS011;67992;46.618;18.850;2023-03-19T06:48:11;3.42;;;2.10;;
77204;SDS011;67992;46.618;18.850;2023-03-19T06:50:39;3.95;;;2.00;;
77204;SDS011;67992;46.618;18.850;2023-03-19T06:53:06;3.55;;;2.20;;
77204;SDS011;67992;46.618;18.850;2023-03-19T06:58:01;3.40;;;2.10;;
77204;SDS011;67992;46.618;18.850;2023-03-19T07:00:27;3.38;;;2.17;;
77204;SDS011;67992;46.618;18.850;2023-03-19T07:02:56;2.97;;;2.22;;
77204;SDS011;67992;46.618;18.850;2023-03-19T07:05:24;3.20;;;2.20;;
77204;SDS011;67992;46.618;18.850;2023-03-19T07:07:50;3.33;;;2.13;;
77204;SDS011;67992;46.618;18.850;2023-03-19T07:10:22;3.38;;;2.10;;
77204;SDS011;67992;46.618;18.850;2023-03-19T07:12:51;3.15;;;2.08;;
77204;SDS011;67992;46.618;18.850;2023-03-19T07:15:20;4.82;;;2.40;;
77204;SDS011;67992;46.618;18.850;2023-03-19T07:17:46;4.13;;;2.20;;
77204;SDS011;67992;46.618;18.850;2023-03-19T07:20:17;3.28;;;2.20;;
77204;SDS011;67992;46.618;18.850;2023-03-19T07:22:44;5.30;;;2.35;;
77204;SDS011;67992;46.618;18.850;2023-03-19T07:25:10;3.53;;;1.90;;
77204;SDS011;67992;46.618;18.850;2023-03-19T07:27:38;2.83;;;2.08;;
77204;SDS011;67992;46.618;18.850;2023-03-19T07:30:07;2.90;;;2.00;;
77204;SDS011;67992;46.618;18.850;2023-03-19T07:32:37;3.10;;;1.90;;
77204;SDS011;67992;46.618;18.850;2023-03-19T07:35:04;4.15;;;2.13;;
77204;SDS011;67992;46.618;18.850;2023-03-19T07:37:31;5.55;;;2.33;;
77204;SDS011;67992;46.618;18.850;2023-03-19T07:39:57;3.50;;;2.10;;
77204;SDS011;67992;46.618;18.850;2023-03-19T07:42:23;3.00;;;2.10;;
77204;SDS011;67992;46.618;18.850;2023-03-19T07:44:49;3.28;;;2.00;;
77204;SDS011;67992;46.618;18.850;2023-03-19T07:47:14;2.63;;;1.92;;
77204;SDS011;67992;46.618;18.850;2023-03-19T07:49:40;2.78;;;1.88;;
77204;SDS011;67992;46.618;18.850;2023-03-19T07:52:08;3.30;;;2.00;;
77204;SDS011;67992;46.618;18.850;2023-03-19T07:54:33;3.20;;;1.80;;
77204;SDS011;67992;46.618;18.850;2023-03-19T07:56:59;3.30;;;2.10;;
77204;SDS011;67992;46.618;18.850;2023-03-19T07:59:25;2.97;;;1.98;;
77204;SDS011;67992;46.618;18.850;2023-03-19T08:01:52;3.55;;;2.20;;
77204;SDS011;67992;46.618;18.850;2023-03-19T08:04:18;2.78;;;1.80;;
77204;SDS011;67992;46.618;18.850;2023-03-19T08:06:44;3.13;;;2.10;;
77204;SDS011;67992;46.618;18.850;2023-03-19T08:09:10;2.80;;;2.00;;
77204;SDS011;67992;46.618;18.850;2023-03-19T08:11:39;2.97;;;2.10;;
77204;SDS011;67992;46.618;18.850;2023-03-19T08:14:07;3.45;;;2.17;;
77204;SDS011;67992;46.618;18.850;2023-03-19T08:16:33;3.00;;;2.03;;
77204;SDS011;67992;46.618;18.850;2023-03-19T08:19:02;3.83;;;2.20;;
77204;SDS011;67992;46.618;18.850;2023-03-19T08:21:30;3.10;;;1.92;;
77204;SDS011;67992;46.618;18.850;2023-03-19T08:23:57;3.25;;;1.92;;
77204;SDS011;67992;46.618;18.850;2023-03-19T08:26:23;2.67;;;1.92;;
77204;SDS011;67992;46.618;18.850;2023-03-19T08:28:52;3.55;;;2.10;;
77204;SDS011;67992;46.618;18.850;2023-03-19T08:31:20;2.83;;;1.95;;
77204;SDS011;67992;46.618;18.850;2023-03-19T08:33:48;2.83;;;1.90;;
77204;SDS011;67992;46.618;18.850;2023-03-19T08:36:20;3.38;;;2.13;;
77204;SDS011;67992;46.618;18.850;2023-03-19T08:38:48;3.20;;;2.03;;
77204;SDS011;67992;46.618;18.850;2023-03-19T08:41:21;2.50;;;1.90;;
77204;SDS011;67992;46.618;18.850;2023-03-19T08:43:47;3.03;;;1.88;;
77204;SDS011;67992;46.618;18.850;2023-03-19T08:46:16;3.17;;;2.00;;
77204;SDS011;67992;46.618;18.850;2023-03-19T08:48:45;3.35;;;2.00;;
77204;SDS011;67992;46.618;18.850;2023-03-19T08:51:20;3.55;;;2.00;;
77204;SDS011;67992;46.618;18.850;2023-03-19T08:53:46;3.00;;;2.00;;
77204;SDS011;67992;46.618;18.850;2023-03-19T08:56:13;3.33;;;1.92;;
77204;SDS011;67992;46.618;18.850;2023-03-19T08:58:38;2.65;;;1.85;;
77204;SDS011;67992;46.618;18.850;2023-03-19T09:01:09;3.13;;;1.98;;
77204;SDS011;67992;46.618;18.850;2023-03-19T09:03:37;3.47;;;2.00;;
77204;SDS011;67992;46.618;18.850;2023-03-19T09:06:11;3.08;;;1.80;;
77204;SDS011;67992;46.618;18.850;2023-03-19T09:08:39;3.20;;;1.98;;
77204;SDS011;67992;46.618;18.850;2023-03-19T09:11:06;3.22;;;2.00;;
77204;SDS011;67992;46.618;18.850;2023-03-19T09:13:35;2.55;;;1.90;;
77204;SDS011;67992;46.618;18.850;2023-03-19T09:16:07;2.83;;;1.80;;
77204;SDS011;67992;46.618;18.850;2023-03-19T09:18:35;3.67;;;2.20;;
77204;SDS011;67992;46.618;18.850;2023-03-19T09:21:01;3.90;;;1.98;;
77204;SDS011;67992;46.618;18.850;2023-03-19T09:23:27;2.80;;;2.20;;
77204;SDS011;67992;46.618;18.850;2023-03-19T09:25:56;2.78;;;1.83;;
77204;SDS011;67992;46.618;18.850;2023-03-19T09:28:24;3.10;;;2.10;;
77204;SDS011;67992;46.618;18.850;2023-03-19T09:30:51;4.78;;;2.50;;
77204;SDS011;67992;46.618;18.850;2023-03-19T09:33:22;3.65;;;2.28;;
77204;SDS011;67992;46.618;18.850;2023-03-19T09:35:52;3.83;;;2.42;;
77204;SDS011;67992;46.618;18.850;2023-03-19T09:38:21;3.55;;;2.17;;
77204;SDS011;67992;46.618;18.850;2023-03-19T09:40:47;2.97;;;2.15;;
77204;SDS011;67992;46.618;18.850;2023-03-19T09:46:08;2.95;;;2.00;;
77204;SDS011;67992;46.618;18.850;2023-03-19T09:51:24;4.13;;;2.20;;
77204;SDS011;67992;46.618;18.850;2023-03-19T09:54:10;2.95;;;2.00;;
77204;SDS011;67992;46.618;18.850;2023-03-19T09:56:44;3.38;;;2.00;;
77204;SDS011;67992;46.618;18.850;2023-03-19T09:59:12;3.17;;;1.85;;
77204;SDS011;67992;46.618;18.850;2023-03-19T10:01:38;3.33;;;2.10;;
77204;SDS011;67992;46.618;18.850;2023-03-19T10:10:24;3.10;;;2.00;;
77204;SDS011;67992;46.618;18.850;2023-03-19T10:15:50;2.75;;;1.90;;
77204;SDS011;67992;46.618;18.850;2023-03-19T10:18:23;3.33;;;2.13;;
77204;SDS011;67992;46.618;18.850;2023-03-19T10:23:36;3.00;;;1.90;;
77204;SDS011;67992;46.618;18.850;2023-03-19T10:26:16;4.03;;;1.90;;
77204;SDS011;67992;46.618;18.850;2023-03-19T10:28:58;2.65;;;1.92;;
77204;SDS011;67992;46.618;18.850;2023-03-19T10:31:28;2.70;;;1.90;;
77204;SDS011;67992;46.618;18.850;2023-03-19T10:37:05;3.13;;;1.92;;
77204;SDS011;67992;46.618;18.850;2023-03-19T10:39:47;3.45;;;2.08;;
77204;SDS011;67992;46.618;18.850;2023-03-19T10:48:02;3.55;;;2.10;;
77204;SDS011;67992;46.618;18.850;2023-03-19T10:50:43;3.05;;;2.08;;
77204;SDS011;67992;46.618;18.850;2023-03-19T10:55:49;3.30;;;2.00;;
77204;SDS011;67992;46.618;18.850;2023-03-19T10:58:38;3.10;;;1.90;;
77204;SDS011;67992;46.618;18.850;2023-03-19T11:01:25;2.95;;;2.03;;
77204;SDS011;67992;46.618;18.850;2023-03-19T11:03:57;3.65;;;1.90;;
77204;SDS011;67992;46.618;18.850;2023-03-19T11:06:36;2.45;;;1.70;;
77204;SDS011;67992;46.618;18.850;2023-03-19T11:14:18;3.20;;;2.10;;
77204;SDS011;67992;46.618;18.850;2023-03-19T11:19:26;3.15;;;2.10;;
77204;SDS011;67992;46.618;18.850;2023-03-19T11:21:58;3.22;;;1.98;;
77204;SDS011;67992;46.618;18.850;2023-03-19T11:24:38;2.80;;;1.80;;
77204;SDS011;67992;46.618;18.850;2023-03-19T11:27:07;3.40;;;2.38;;
77204;SDS011;67992;46.618;18.850;2023-03-19T11:29:41;3.67;;;2.30;;
77204;SDS011;67992;46.618;18.850;2023-03-19T11:37:46;3.95;;;2.40;;
77204;SDS011;67992;46.618;18.850;2023-03-19T11:45:58;3.65;;;2.40;;
77204;SDS011;67992;46.618;18.850;2023-03-19T11:51:15;4.07;;;2.30;;
77204;SDS011;67992;46.618;18.850;2023-03-19T11:53:53;4.00;;;2.30;;
77204;SDS011;67992;46.618;18.850;2023-03-19T11:57:22;3.55;;;2.13;;
77204;SDS011;67992;46.618;18.850;2023-03-19T12:05:31;2.97;;;2.17;;
77204;SDS011;67992;46.618;18.850;2023-03-19T12:08:07;3.45;;;2.25;;
77204;SDS011;67992;46.618;18.850;2023-03-19T12:26:45;3.25;;;2.10;;
77204;SDS011;67992;46.618;18.850;2023-03-19T12:29:45;3.25;;;2.00;;
77204;SDS011;67992;46.618;18.850;2023-03-19T12:32:24;3.13;;;2.20;;
77204;SDS011;67992;46.618;18.850;2023-03-19T12:34:56;3.47;;;2.00;;
77204;SDS011;67992;46.618;18.850;2023-03-19T12:40:31;3.67;;;2.10;;
77204;SDS011;67992;46.618;18.850;2023-03-19T12:43:20;3.28;;;2.17;;
77204;SDS011;67992;46.618;18.850;2023-03-19T12:45:56;3.55;;;2.20;;
77204;SDS011;67992;46.618;18.850;2023-03-19T12:48:38;3.63;;;2.50;;
77204;SDS011;67992;46.618;18.850;2023-03-19T12:51:10;3.65;;;2.00;;
77204;SDS011;67992;46.618;18.850;2023-03-19T12:53:46;2.90;;;2.15;;
77204;SDS011;67992;46.618;18.850;2023-03-19T12:59:10;3.20;;;2.08;;
77204;SDS011;67992;46.618;18.850;2023-03-19T13:04:54;2.63;;;2.10;;
77204;SDS011;67992;46.618;18.850;2023-03-19T13:08:07;3.13;;;2.38;;
77204;SDS011;67992;46.618;18.850;2023-03-19T13:10:44;2.97;;;2.08;;
77204;SDS011;67992;46.618;18.850;2023-03-19T13:16:16;3.17;;;2.05;;
77204;SDS011;67992;46.618;18.850;2023-03-19T13:21:54;3.33;;;1.98;;
77204;SDS011;67992;46.618;18.850;2023-03-19T13:24:33;3.42;;;2.05;;
77204;SDS011;67992;46.618;18.850;2023-03-19T13:27:02;3.42;;;1.98;;
77204;SDS011;67992;46.618;18.850;2023-03-19T13:29:32;3.30;;;2.15;;
77204;SDS011;67992;46.618;18.850;2023-03-19T13:32:07;2.85;;;2.03;;
77204;SDS011;67992;46.618;18.850;2023-03-19T13:34:51;2.67;;;1.92;;
77204;SDS011;67992;46.618;18.850;2023-03-19T13:37:43;2.92;;;1.90;;
77204;SDS011;67992;46.618;18.850;2023-03-19T13:45:53;2.75;;;1.90;;
77204;SDS011;67992;46.618;18.850;2023-03-19T13:51:21;3.28;;;2.15;;
77204;SDS011;67992;46.618;18.850;2023-03-19T13:53:57;3.45;;;2.10;;
77204;SDS011;67992;46.618;18.850;2023-03-19T13:59:33;3.17;;;2.08;;
77204;SDS011;67992;46.618;18.850;2023-03-19T14:02:43;3.55;;;2.20;;
77204;SDS011;67992;46.618;18.850;2023-03-19T14:04:59;2.80;;;1.92;;
77204;SDS011;67992;46.618;18.850;2023-03-19T14:07:38;3.05;;;2.13;;
77204;SDS011;67992;46.618;18.850;2023-03-19T14:10:11;2.83;;;2.00;;
77204;SDS011;67992;46.618;18.850;2023-03-19T14:12:42;2.95;;;1.85;;
77204;SDS011;67992;46.618;18.850;2023-03-19T14:17:38;2.95;;;1.95;;
77204;SDS011;67992;46.618;18.850;2023-03-19T14:25:24;2.92;;;2.00;;
77204;SDS011;67992;46.618;18.850;2023-03-19T14:28:10;3.95;;;2.30;;
77204;SDS011;67992;46.618;18.850;2023-03-19T14:30:44;3.08;;;2.00;;
77204;SDS011;67992;46.618;18.850;2023-03-19T14:33:17;3.05;;;2.00;;
77204;SDS011;67992;46.618;18.850;2023-03-19T14:35:47;3.10;;;2.00;;
77204;SDS011;67992;46.618;18.850;2023-03-19T14:38:49;2.53;;;1.85;;
77204;SDS011;67992;46.618;18.850;2023-03-19T14:41:19;3.42;;;2.10;;
77204;SDS011;67992;46.618;18.850;2023-03-19T14:49:06;2.60;;;1.80;;
77204;SDS011;67992;46.618;18.850;2023-03-19T14:54:50;3.13;;;2.15;;
77204;SDS011;67992;46.618;18.850;2023-03-19T14:57:25;3.08;;;1.95;;
77204;SDS011;67992;46.618;18.850;2023-03-19T14:59:54;3.85;;;2.22;;
77204;SDS011;67992;46.618;18.850;2023-03-19T15:02:24;2.92;;;2.10;;
77204;SDS011;67992;46.618;18.850;2023-03-19T15:04:57;3.35;;;2.03;;
77204;SDS011;67992;46.618;18.850;2023-03-19T15:07:29;3.55;;;2.15;;
77204;SDS011;67992;46.618;18.850;2023-03-19T15:10:02;3.97;;;2.10;;
77204;SDS011;67992;46.618;18.850;2023-03-19T15:12:55;2.72;;;1.90;;
77204;SDS011;67992;46.618;18.850;2023-03-19T15:17:58;2.55;;;1.98;;
77204;SDS011;67992;46.618;18.850;2023-03-19T15:20:49;2.80;;;1.83;;
77204;SDS011;67992;46.618;18.850;2023-03-19T15:23:26;2.55;;;1.70;;
77204;SDS011;67992;46.618;18.850;2023-03-19T15:25:54;2.70;;;1.92;;
77204;SDS011;67992;46.618;18.850;2023-03-19T15:28:26;3.30;;;2.10;;
77204;SDS011;67992;46.618;18.850;2023-03-19T15:31:13;3.25;;;2.10;;
77204;SDS011;67992;46.618;18.850;2023-03-19T15:33:39;3.30;;;2.00;;
77204;SDS011;67992;46.618;18.850;2023-03-19T15:38:50;4.13;;;2.20;;
77204;SDS011;67992;46.618;18.850;2023-03-19T15:41:39;3.22;;;2.00;;
77204;SDS011;67992;46.618;18.850;2023-03-19T15:44:13;3.67;;;2.00;;
77204;SDS011;67992;46.618;18.850;2023-03-19T15:46:43;2.95;;;2.15;;
77204;SDS011;67992;46.618;18.850;2023-03-19T15:49:12;2.88;;;2.08;;
77204;SDS011;67992;46.618;18.850;2023-03-19T15:51:49;3.28;;;2.08;;
77204;SDS011;67992;46.618;18.850;2023-03-19T15:54:20;2.85;;;2.08;;
77204;SDS011;67992;46.618;18.850;2023-03-19T15:56:47;2.53;;;1.90;;
77204;SDS011;67992;46.618;18.850;2023-03-19T15:59:19;2.60;;;1.98;;
77204;SDS011;67992;46.618;18.850;2023-03-19T16:01:49;3.63;;;2.20;;
77204;SDS011;67992;46.618;18.850;2023-03-19T16:04:21;2.95;;;1.80;;
77204;SDS011;67992;46.618;18.850;2023-03-19T16:06:49;2.80;;;1.90;;
77204;SDS011;67992;46.618;18.850;2023-03-19T16:16:58;3.25;;;2.05;;
77204;SDS011;67992;46.618;18.850;2023-03-19T16:19:49;2.95;;;2.03;;
77204;SDS011;67992;46.618;18.850;2023-03-19T16:22:20;3.20;;;2.10;;
77204;SDS011;67992;46.618;18.850;2023-03-19T16:24:51;3.30;;;2.10;;
77204;SDS011;67992;46.618;18.850;2023-03-19T16:27:35;4.00;;;2.20;;
77204;SDS011;67992;46.618;18.850;2023-03-19T16:30:21;3.03;;;1.90;;
77204;SDS011;67992;46.618;18.850;2023-03-19T16:33:02;2.85;;;2.30;;
77204;SDS011;67992;46.618;18.850;2023-03-19T16:35:30;2.85;;;2.15;;
77204;SDS011;67992;46.618;18.850;2023-03-19T16:40:45;3.35;;;2.03;;
77204;SDS011;67992;46.618;18.850;2023-03-19T16:43:33;3.15;;;2.03;;
77204;SDS011;67992;46.618;18.850;2023-03-19T16:46:04;3.90;;;2.03;;
77204;SDS011;67992;46.618;18.850;2023-03-19T16:48:32;3.08;;;2.28;;
77204;SDS011;67992;46.618;18.850;2023-03-19T16:51:00;3.22;;;2.00;;
77204;SDS011;67992;46.618;18.850;2023-03-19T16:53:29;3.08;;;2.20;;
77204;SDS011;67992;46.618;18.850;2023-03-19T16:55:56;3.05;;;1.95;;
77204;SDS011;67992;46.618;18.850;2023-03-19T16:58:35;2.65;;;2.00;;
77204;SDS011;67992;46.618;18.850;2023-03-19T17:01:13;3.17;;;2.13;;
77204;SDS011;67992;46.618;18.850;2023-03-19T17:03:42;3.03;;;2.10;;
77204;SDS011;67992;46.618;18.850;2023-03-19T17:06:10;3.95;;;2.70;;
77204;SDS011;67992;46.618;18.850;2023-03-19T17:08:40;7.82;;;3.28;;